Time;durP1;ratioP1;P1;durP2;ratioP2;P2;SDS_P1;SDS_P2;PMS_P1;PMS_P2;Temp;Humidity;BMP_temperature;BMP_pressure;BME280_temperature;BME280_humidity;BME280_pressure;Samples;Min_cycle;Max_cycle;Signal;HPM_P1;HPM_P2
2022/07/23 00:00:54;;;;;;;18.13;5.35;;;16.40;99.90;;;;;;4951919;28;20187;-58
2022/07/23 00:03:19;;;;;;;15.18;5.10;;;16.40;99.90;;;;;;4952938;28;20180;-58
2022/07/23 00:05:45;;;;;;;10.43;5.18;;;16.40;99.90;;;;;;4953145;29;20703;-57
2022/07/23 00:08:11;;;;;;;19.67;5.18;;;16.30;99.90;;;;;;4953139;28;20219;-58
2022/07/23 00:10:37;;;;;;;15.07;5.68;;;16.30;99.90;;;;;;4953096;28;20212;-57
2022/07/23 00:13:03;;;;;;;16.55;4.82;;;16.30;99.90;;;;;;4952953;28;20272;-57
2022/07/23 00:15:29;;;;;;;15.32;5.32;;;16.20;99.90;;;;;;4951642;28;20604;-57
2022/07/23 00:17:54;;;;;;;17.10;6.35;;;16.10;99.90;;;;;;4953019;28;20667;-57
2022/07/23 00:20:20;;;;;;;19.02;6.10;;;16.20;99.90;;;;;;4950536;29;20299;-57
2022/07/23 00:22:50;;;;;;;12.90;5.65;;;16.10;99.90;;;;;;4952964;29;20185;-57
2022/07/23 00:25:16;;;;;;;11.70;5.07;;;16.10;99.90;;;;;;4952832;29;20176;-57
2022/07/23 00:27:42;;;;;;;17.77;5.70;;;16.10;99.90;;;;;;4952917;28;20265;-57
2022/07/23 00:30:09;;;;;;;19.05;6.10;;;16.10;99.90;;;;;;4952362;29;20211;-57
2022/07/23 00:32:56;;;;;;;16.90;6.00;;;16.10;99.90;;;;;;4951315;29;20181;-57
2022/07/23 00:35:23;;;;;;;19.90;6.40;;;16.00;99.90;;;;;;4952758;28;20204;-57
2022/07/23 00:37:49;;;;;;;16.75;6.40;;;16.00;99.90;;;;;;4952695;29;20453;-58
2022/07/23 00:40:15;;;;;;;14.40;5.88;;;15.90;99.90;;;;;;4953139;28;20708;-58
2022/07/23 00:42:41;;;;;;;16.63;5.57;;;15.90;99.90;;;;;;4952642;29;20296;-58
2022/07/23 00:45:08;;;;;;;14.18;5.97;;;15.80;99.90;;;;;;4952689;29;20267;-58
2022/07/23 00:47:34;;;;;;;12.10;5.70;;;15.80;99.90;;;;;;4952385;28;20340;-58
2022/07/23 00:50:01;;;;;;;14.70;5.53;;;15.80;99.90;;;;;;4953928;28;20180;-56
2022/07/23 00:52:27;;;;;;;12.25;5.38;;;15.70;99.90;;;;;;4956496;28;20192;-58
2022/07/23 00:54:52;;;;;;;10.32;5.00;;;15.70;99.90;;;;;;4956412;28;20707;-58
2022/07/23 00:57:18;;;;;;;12.57;5.03;;;15.70;99.90;;;;;;4956116;28;20172;-57
2022/07/23 00:59:44;;;;;;;15.10;5.25;;;15.70;99.90;;;;;;4956094;29;20180;-58
2022/07/23 01:02:10;;;;;;;26.80;5.35;;;15.70;99.90;;;;;;4956006;28;20272;-57
2022/07/23 01:04:36;;;;;;;10.05;5.10;;;15.70;99.90;;;;;;4955946;28;20231;-57
2022/07/23 01:07:02;;;;;;;13.18;5.15;;;15.60;99.90;;;;;;4954506;29;20184;-56
2022/07/23 01:09:28;;;;;;;11.82;5.45;;;15.60;99.90;;;;;;4954530;28;20212;-58
2022/07/23 01:11:56;;;;;;;10.88;4.93;;;15.60;99.90;;;;;;4955939;29;20204;-58
2022/07/23 01:14:22;;;;;;;14.60;5.40;;;15.50;99.90;;;;;;4956164;28;20175;-57
2022/07/23 01:16:49;;;;;;;21.55;5.53;;;15.50;99.90;;;;;;4955616;28;20173;-58
2022/07/23 01:19:16;;;;;;;11.73;5.22;;;15.50;99.90;;;;;;4955806;28;20231;-58
2022/07/23 01:21:47;;;;;;;17.40;5.85;;;13.80;99.90;;;;;;4955804;28;20216;-58
2022/07/23 01:24:14;;;;;;;13.02;5.45;;;15.50;99.90;;;;;;4955590;29;20181;-59
2022/07/23 01:26:44;;;;;;;13.45;5.35;;;15.40;99.90;;;;;;4955676;28;20559;-56
2022/07/23 01:29:10;;;;;;;15.00;5.30;;;15.30;99.90;;;;;;4955817;28;20587;-56
2022/07/23 01:31:36;;;;;;;10.80;5.38;;;15.30;99.90;;;;;;4955740;29;20212;-56
2022/07/23 01:34:03;;;;;;;13.45;5.20;;;15.20;99.90;;;;;;4955518;29;20555;-56
2022/07/23 01:36:29;;;;;;;12.05;5.85;;;15.20;99.90;;;;;;4955624;28;20184;-57
2022/07/23 01:38:55;;;;;;;14.13;5.28;;;15.20;99.90;;;;;;4955431;28;20169;-57
2022/07/23 01:41:21;;;;;;;15.88;6.45;;;15.20;99.90;;;;;;4955452;29;20667;-58
2022/07/23 01:43:47;;;;;;;10.23;6.03;;;15.10;99.90;;;;;;4936785;29;20176;-58
2022/07/23 01:46:13;;;;;;;16.15;5.95;;;15.10;99.90;;;;;;4955496;28;20177;-57
2022/07/23 01:48:40;;;;;;;12.98;7.15;;;15.10;99.90;;;;;;4955311;28;20169;-57
2022/07/23 01:51:05;;;;;;;19.70;7.82;;;15.00;99.90;;;;;;4954813;29;20231;-57
2022/07/23 01:53:32;;;;;;;15.63;6.55;;;15.00;99.90;;;;;;4955318;28;20252;-58
2022/07/23 01:55:58;;;;;;;11.60;5.97;;;15.00;99.90;;;;;;4955293;29;20281;-57
2022/07/23 01:58:25;;;;;;;14.85;6.30;;;14.90;99.90;;;;;;4955400;28;20173;-58
2022/07/23 02:00:51;;;;;;;17.00;7.15;;;14.90;99.90;;;;;;4950970;28;20183;-58
2022/07/23 02:03:17;;;;;;;13.65;6.85;;;14.90;99.90;;;;;;4951236;28;20173;-58
2022/07/23 02:05:43;;;;;;;12.93;6.47;;;14.90;99.90;;;;;;4954862;28;20648;-57
2022/07/23 02:08:09;;;;;;;12.27;6.18;;;14.90;99.90;;;;;;4935951;28;20181;-59
2022/07/23 02:10:35;;;;;;;16.20;6.28;;;14.90;99.90;;;;;;4935988;29;20690;-57
2022/07/23 02:13:00;;;;;;;16.88;5.85;;;14.80;99.90;;;;;;4935943;29;20213;-58
2022/07/23 02:15:28;;;;;;;8.10;5.50;;;14.90;99.90;;;;;;4940468;29;20208;-58
2022/07/23 02:17:54;;;;;;;12.80;6.03;;;14.80;99.90;;;;;;4954828;28;20212;-57
2022/07/23 02:20:20;;;;;;;15.13;6.53;;;14.80;99.90;;;;;;4954280;28;20278;-57
2022/07/23 02:22:46;;;;;;;17.95;6.57;;;14.70;99.90;;;;;;4955174;28;20184;-57
2022/07/23 02:25:12;;;;;;;16.00;6.60;;;14.70;99.90;;;;;;4954682;28;20189;-58
2022/07/23 02:27:38;;;;;;;12.38;6.90;;;14.70;99.90;;;;;;4954457;28;20656;-58
2022/07/23 02:30:05;;;;;;;14.77;6.57;;;14.70;99.90;;;;;;4954319;28;20176;-57
2022/07/23 02:32:31;;;;;;;17.60;6.95;;;14.70;99.90;;;;;;4954577;28;20211;-57
2022/07/23 02:34:57;;;;;;;15.23;6.47;;;14.70;99.90;;;;;;4954738;28;20200;-58
2022/07/23 02:37:23;;;;;;;15.35;6.40;;;14.70;99.90;;;;;;4954706;28;20177;-57
2022/07/23 02:39:48;;;;;;;12.52;6.32;;;14.60;99.90;;;;;;4954616;28;20543;-57
2022/07/23 02:42:15;;;;;;;13.80;6.70;;;14.70;99.90;;;;;;4954389;28;20192;-58
2022/07/23 02:44:41;;;;;;;14.48;6.78;;;14.70;99.90;;;;;;4954237;28;20184;-57
2022/07/23 02:47:07;;;;;;;11.07;6.40;;;14.70;99.90;;;;;;4954257;28;20168;-57
2022/07/23 02:49:33;;;;;;;11.60;6.47;;;14.80;99.90;;;;;;4954168;28;20308;-57
2022/07/23 02:51:59;;;;;;;12.25;5.03;;;14.60;99.90;;;;;;4954085;28;20594;-57
2022/07/23 02:54:25;;;;;;;9.55;5.63;;;14.60;99.90;;;;;;4953613;28;20187;-57
2022/07/23 02:56:51;;;;;;;16.05;5.95;;;14.60;99.90;;;;;;4954245;28;20263;-57
2022/07/23 02:59:17;;;;;;;13.55;5.60;;;14.60;99.90;;;;;;4954288;28;20184;-56
2022/07/23 03:01:44;;;;;;;10.88;5.50;;;14.50;99.90;;;;;;4953707;28;20647;-57
2022/07/23 03:04:09;;;;;;;7.00;4.80;;;14.50;99.90;;;;;;4954040;28;20251;-57
2022/07/23 03:06:36;;;;;;;11.98;4.70;;;14.60;99.90;;;;;;4953503;28;20214;-57
2022/07/23 03:09:03;;;;;;;11.32;4.65;;;14.50;99.90;;;;;;4953770;28;20180;-56
2022/07/23 03:11:29;;;;;;;8.32;4.70;;;14.60;99.90;;;;;;4953827;28;20208;-57
2022/07/23 03:13:55;;;;;;;10.32;4.40;;;14.60;99.90;;;;;;4953464;28;20173;-56
2022/07/23 03:16:20;;;;;;;7.45;3.95;;;14.70;99.90;;;;;;4953810;29;20195;-57
2022/07/23 03:18:46;;;;;;;10.95;4.75;;;14.60;99.90;;;;;;4953438;28;20177;-58
2022/07/23 03:21:12;;;;;;;11.65;4.30;;;14.60;99.90;;;;;;4953420;28;20220;-61
2022/07/23 03:23:38;;;;;;;8.02;3.90;;;14.60;99.90;;;;;;4953644;28;20175;-64
2022/07/23 03:26:05;;;;;;;10.63;4.07;;;14.50;99.90;;;;;;4943006;29;20184;-60
2022/07/23 03:28:30;;;;;;;6.45;3.38;;;14.60;99.90;;;;;;4953706;28;20207;-60
2022/07/23 03:30:57;;;;;;;7.65;3.70;;;14.50;99.90;;;;;;4953510;28;20255;-60
2022/07/23 03:33:22;;;;;;;7.13;3.60;;;14.50;99.90;;;;;;4953473;28;20177;-60
2022/07/23 03:35:48;;;;;;;8.52;3.58;;;14.50;99.90;;;;;;4953594;29;20184;-60
2022/07/23 03:38:14;;;;;;;8.98;3.72;;;14.50;99.90;;;;;;4953510;29;20215;-60
2022/07/23 03:40:40;;;;;;;11.48;3.85;;;14.50;99.90;;;;;;4953391;28;20180;-61
2022/07/23 03:43:06;;;;;;;8.98;3.80;;;14.50;99.90;;;;;;4953428;28;20532;-61
2022/07/23 03:45:32;;;;;;;8.35;4.20;;;14.50;99.90;;;;;;4953124;29;20226;-60
2022/07/23 03:47:58;;;;;;;8.65;4.10;;;14.50;99.90;;;;;;4953494;28;20176;-60
2022/07/23 03:50:24;;;;;;;8.02;3.55;;;14.40;99.90;;;;;;4951794;29;20195;-60
2022/07/23 03:52:50;;;;;;;10.30;3.88;;;14.40;99.90;;;;;;4953095;28;20180;-61
2022/07/23 03:55:16;;;;;;;14.35;5.55;;;14.30;99.90;;;;;;4953270;28;20232;-61
2022/07/23 03:57:43;;;;;;;14.32;5.45;;;14.10;99.90;;;;;;4953242;28;20175;-61
2022/07/23 04:00:10;;;;;;;11.73;5.82;;;14.10;99.90;;;;;;4952954;28;20191;-60
2022/07/23 04:02:37;;;;;;;9.07;5.50;;;14.00;99.90;;;;;;4952893;28;20651;-60
2022/07/23 04:05:04;;;;;;;14.02;5.40;;;13.90;99.90;;;;;;4953187;28;20177;-60
2022/07/23 04:07:30;;;;;;;11.05;4.15;;;13.90;99.90;;;;;;4953367;28;20173;-61
2022/07/23 04:09:56;;;;;;;7.63;4.28;;;13.90;99.90;;;;;;4952710;28;20247;-60
2022/07/23 04:12:22;;;;;;;14.25;5.10;;;13.80;99.90;;;;;;4953036;28;20195;-59
2022/07/23 04:14:47;;;;;;;14.85;5.72;;;13.90;99.90;;;;;;4951546;29;20700;-60
2022/07/23 04:17:13;;;;;;;11.18;5.63;;;13.80;99.90;;;;;;4952925;28;20308;-60
2022/07/23 04:19:41;;;;;;;13.70;6.18;;;13.80;99.90;;;;;;4939590;29;20177;-60
2022/07/23 04:22:07;;;;;;;17.17;6.22;;;13.70;99.90;;;;;;4952763;28;20252;-60
2022/07/23 04:24:33;;;;;;;12.77;6.45;;;13.80;99.90;;;;;;4953534;28;20235;-59
2022/07/23 04:27:00;;;;;;;10.98;5.45;;;13.80;99.90;;;;;;4956877;28;20168;-60
2022/07/23 04:29:25;;;;;;;13.85;5.72;;;13.80;99.90;;;;;;4956892;28;20180;-60
2022/07/23 04:31:51;;;;;;;11.63;5.85;;;13.90;99.90;;;;;;4956258;28;20284;-60
2022/07/23 04:34:17;;;;;;;17.58;6.20;;;13.90;99.90;;;;;;4955641;28;20178;-59
2022/07/23 04:36:43;;;;;;;13.32;6.35;;;13.90;99.90;;;;;;4956807;29;20255;-60
2022/07/23 04:39:09;;;;;;;13.80;6.25;;;13.80;99.90;;;;;;4956581;29;20168;-60
2022/07/23 04:41:35;;;;;;;12.48;6.20;;;13.90;99.90;;;;;;4956658;29;20703;-59
2022/07/23 04:44:01;;;;;;;13.30;6.55;;;13.90;99.90;;;;;;4956395;28;20208;-59
2022/07/23 04:46:27;;;;;;;15.15;6.47;;;14.00;99.90;;;;;;4956596;28;20172;-59
2022/07/23 04:48:54;;;;;;;18.05;6.82;;;13.90;99.90;;;;;;4956522;28;20687;-60
2022/07/23 04:51:20;;;;;;;13.88;6.93;;;14.00;99.90;;;;;;4956487;28;20302;-59
2022/07/23 04:53:46;;;;;;;10.77;6.22;;;14.00;99.90;;;;;;4956569;28;20243;-60
2022/07/23 04:56:12;;;;;;;14.93;6.43;;;14.10;99.90;;;;;;4954922;28;20181;-60
2022/07/23 04:58:38;;;;;;;12.38;6.88;;;14.10;99.90;;;;;;4956349;28;20297;-61
2022/07/23 05:01:03;;;;;;;15.77;6.55;;;14.20;99.90;;;;;;4956104;28;20172;-60
2022/07/23 05:03:29;;;;;;;13.27;6.32;;;14.30;99.90;;;;;;4956399;29;20259;-60
2022/07/23 05:05:55;;;;;;;15.57;7.00;;;14.30;99.90;;;;;;4956455;28;20670;-59
2022/07/23 05:08:21;;;;;;;15.02;6.60;;;14.40;99.90;;;;;;4955937;28;20177;-60
2022/07/23 05:10:47;;;;;;;15.02;6.40;;;14.40;99.90;;;;;;4955944;29;20255;-60
2022/07/23 05:13:17;;;;;;;18.40;7.00;;;14.50;99.90;;;;;;4955742;29;20187;-59
2022/07/23 05:15:43;;;;;;;16.90;6.70;;;14.50;99.90;;;;;;4955997;28;20176;-60
2022/07/23 05:18:09;;;;;;;12.93;6.35;;;14.60;99.90;;;;;;4955935;29;20164;-60
2022/07/23 05:20:35;;;;;;;16.40;6.25;;;14.70;99.90;;;;;;4953770;29;20226;-61
2022/07/23 05:23:01;;;;;;;17.98;5.95;;;14.70;99.90;;;;;;4955784;28;20254;-59
2022/07/23 05:25:27;;;;;;;11.30;5.90;;;14.80;99.90;;;;;;4955870;28;20173;-59
2022/07/23 05:27:53;;;;;;;18.38;7.20;;;14.80;99.90;;;;;;4955447;28;20654;-61
2022/07/23 05:30:19;;;;;;;16.45;6.47;;;14.80;99.90;;;;;;4955654;28;20722;-60
2022/07/23 05:32:45;;;;;;;16.70;6.07;;;14.90;99.90;;;;;;4955807;28;20177;-60
2022/07/23 05:35:11;;;;;;;13.27;6.57;;;15.00;99.90;;;;;;4955456;28;20228;-60
2022/07/23 05:37:37;;;;;;;18.27;5.95;;;15.00;99.90;;;;;;4955264;28;20165;-60
2022/07/23 05:40:07;;;;;;;13.77;6.30;;;15.00;99.90;;;;;;4955627;28;20169;-60
2022/07/23 05:42:33;;;;;;;16.00;5.88;;;15.00;99.90;;;;;;4954371;29;20519;-59
2022/07/23 05:44:59;;;;;;;12.38;6.20;;;15.10;99.90;;;;;;4955784;28;20239;-60
2022/07/23 05:47:25;;;;;;;16.70;5.93;;;15.10;99.90;;;;;;4955472;28;20181;-61
2022/07/23 05:49:51;;;;;;;12.40;6.30;;;15.20;99.90;;;;;;4955207;28;20181;-60
2022/07/23 05:52:17;;;;;;;12.90;5.40;;;15.30;99.90;;;;;;4955365;28;20208;-60
2022/07/23 05:54:43;;;;;;;12.10;5.75;;;15.30;99.90;;;;;;4955304;29;20264;-60
2022/07/23 05:57:09;;;;;;;13.07;5.93;;;15.30;99.90;;;;;;4954909;29;20276;-60
2022/07/23 05:59:34;;;;;;;13.50;5.70;;;15.50;99.90;;;;;;4955208;28;20667;-60
2022/07/23 06:02:00;;;;;;;13.35;5.25;;;15.40;99.90;;;;;;4954720;28;20259;-60
2022/07/23 06:04:26;;;;;;;14.90;5.38;;;15.50;99.90;;;;;;4955239;28;20186;-60
2022/07/23 06:06:52;;;;;;;9.00;4.88;;;15.50;99.90;;;;;;4955001;28;20537;-60
2022/07/23 06:09:18;;;;;;;13.63;4.53;;;15.50;99.90;;;;;;4955060;29;20321;-60
2022/07/23 06:11:44;;;;;;;11.98;4.93;;;15.60;99.90;;;;;;4954866;28;20686;-59
2022/07/23 06:14:09;;;;;;;10.95;4.78;;;15.60;99.90;;;;;;4955119;28;20169;-60
2022/07/23 06:16:35;;;;;;;6.10;4.45;;;15.60;99.90;;;;;;4954620;28;20188;-60
2022/07/23 06:19:01;;;;;;;11.18;4.13;;;15.70;99.90;;;;;;4954975;28;20184;-61
2022/07/23 06:21:27;;;;;;;8.35;3.53;;;15.70;99.90;;;;;;4954762;28;20714;-60
2022/07/23 06:23:53;;;;;;;11.73;4.25;;;15.70;99.90;;;;;;4946385;28;20177;-60
2022/07/23 06:26:19;;;;;;;6.95;3.97;;;15.80;99.90;;;;;;4950084;29;20188;-61
2022/07/23 06:28:44;;;;;;;9.73;4.80;;;15.80;99.90;;;;;;4954992;28;20648;-63
2022/07/23 06:31:10;;;;;;;8.82;4.20;;;13.50;99.90;;;;;;4954108;28;20687;-66
2022/07/23 06:33:36;;;;;;;10.65;5.18;;;15.90;99.90;;;;;;4953358;28;20215;-75
2022/07/23 06:36:02;;;;;;;6.28;4.75;;;15.90;99.90;;;;;;4954352;28;20619;-75
2022/07/23 06:38:27;;;;;;;14.98;5.15;;;16.00;99.90;;;;;;4954201;29;20655;-71
2022/07/23 06:40:53;;;;;;;8.38;4.65;;;16.10;99.90;;;;;;4954540;28;20667;-70
2022/07/23 06:43:19;;;;;;;11.65;4.80;;;16.10;99.90;;;;;;4954379;29;20256;-70
2022/07/23 06:45:45;;;;;;;11.48;4.70;;;;;;;;;;4954424;28;20641;-72
2022/07/23 06:48:11;;;;;;;7.57;4.13;;;16.30;99.90;;;;;;4953635;28;20759;-71
2022/07/23 06:50:37;;;;;;;12.20;4.30;;;16.30;99.90;;;;;;4953686;28;20295;-70
2022/07/23 06:53:02;;;;;;;11.15;4.28;;;16.40;99.90;;;;;;4953851;28;20206;-70
2022/07/23 06:55:28;;;;;;;6.25;3.72;;;16.60;99.90;;;;;;4953912;28;20188;-70
2022/07/23 06:57:54;;;;;;;9.15;4.13;;;16.80;99.90;;;;;;4954223;29;20173;-70
2022/07/23 07:00:20;;;;;;;6.93;3.10;;;17.10;99.90;;;;;;4954049;28;20188;-71
2022/07/23 07:02:46;;;;;;;8.00;3.95;;;17.20;99.90;;;;;;4952819;29;20172;-68
2022/07/23 07:05:12;;;;;;;7.30;3.40;;;17.30;99.90;;;;;;4954189;28;20703;-69
2022/07/23 07:07:37;;;;;;;8.20;3.55;;;17.40;99.90;;;;;;4952720;28;20164;-68
2022/07/23 07:10:04;;;;;;;6.13;2.75;;;17.40;99.90;;;;;;4953901;28;20187;-68
2022/07/23 07:12:30;;;;;;;6.65;3.10;;;17.50;99.90;;;;;;4953885;28;20211;-70
2022/07/23 07:14:57;;;;;;;9.02;2.97;;;17.50;99.90;;;;;;4953873;28;20176;-71
2022/07/23 07:17:23;;;;;;;6.32;2.90;;;17.70;99.90;;;;;;4953814;29;20183;-70
2022/07/23 07:19:48;;;;;;;3.35;2.40;;;17.80;99.90;;;;;;4953805;28;20628;-69
2022/07/23 07:22:14;;;;;;;6.18;2.50;;;17.90;99.90;;;;;;4953581;28;20268;-71
2022/07/23 07:24:40;;;;;;;3.92;2.35;;;18.10;99.90;;;;;;4953344;29;20231;-71
2022/07/23 07:27:06;;;;;;;7.80;2.35;;;18.20;99.90;;;;;;4953704;28;20675;-71
2022/07/23 07:29:32;;;;;;;3.97;2.17;;;18.10;99.90;;;;;;4953659;28;20652;-69
2022/07/23 07:31:58;;;;;;;3.33;1.85;;;17.90;99.90;;;;;;4952309;29;20211;-71
2022/07/23 07:34:24;;;;;;;6.00;2.03;;;17.90;99.90;;;;;;4953090;28;20173;-70
2022/07/23 07:36:50;;;;;;;6.38;2.13;;;18.00;99.90;;;;;;4953613;28;20321;-71
2022/07/23 07:39:16;;;;;;;2.65;1.70;;;18.00;99.90;;;;;;4953568;28;20675;-69
2022/07/23 07:41:42;;;;;;;2.88;1.60;;;18.00;99.90;;;;;;4953445;28;20666;-68
2022/07/23 07:44:07;;;;;;;3.67;1.50;;;18.30;99.90;;;;;;4953390;28;20223;-68
2022/07/23 07:46:33;;;;;;;3.83;1.63;;;18.20;99.90;;;;;;4952479;28;20182;-70
2022/07/23 07:48:59;;;;;;;3.78;1.60;;;18.20;99.90;;;;;;4953400;28;20227;-69
2022/07/23 07:51:26;;;;;;;4.50;1.70;;;18.20;99.90;;;;;;4952972;28;20205;-69
2022/07/23 07:53:52;;;;;;;6.22;1.77;;;18.20;99.90;;;;;;4953325;28;20161;-68
2022/07/23 07:56:18;;;;;;;4.65;2.15;;;18.30;99.90;;;;;;4952230;28;20181;-68
2022/07/23 07:58:44;;;;;;;5.90;2.08;;;18.40;99.90;;;;;;4943271;28;20184;-67
2022/07/23 08:01:09;;;;;;;3.35;1.85;;;18.60;99.90;;;;;;4953204;28;20177;-68
2022/07/23 08:03:35;;;;;;;2.70;1.63;;;18.60;99.90;;;;;;4952769;28;20178;-68
2022/07/23 08:06:01;;;;;;;3.65;1.55;;;18.80;99.90;;;;;;4953338;28;20184;-69
2022/07/23 08:08:27;;;;;;;3.67;1.40;;;19.20;99.90;;;;;;4951779;29;20172;-69
2022/07/23 08:10:53;;;;;;;1.05;0.80;;;19.40;99.90;;;;;;4952604;29;20572;-69
2022/07/23 08:13:18;;;;;;;2.40;0.90;;;19.40;99.90;;;;;;4951524;28;20604;-68
2022/07/23 08:15:44;;;;;;;3.40;0.90;;;19.50;99.90;;;;;;4952396;28;20688;-67
2022/07/23 08:18:10;;;;;;;2.92;0.88;;;19.60;99.90;;;;;;4952418;28;20184;-68
2022/07/23 08:20:36;;;;;;;4.38;1.10;;;19.70;99.90;;;;;;4951303;29;20288;-69
2022/07/23 08:23:07;;;;;;;2.70;1.02;;;19.80;99.90;;;;;;4953040;28;20279;-71
2022/07/23 08:25:39;;;;;;;3.08;1.20;;;19.80;99.90;;;;;;4952804;28;20173;-69
2022/07/23 08:28:07;;;;;;;1.85;0.90;;;19.90;99.90;;;;;;4947244;28;20188;-69
2022/07/23 08:30:34;;;;;;;1.50;0.90;;;20.00;99.90;;;;;;4949211;28;20224;-70
2022/07/23 08:33:04;;;;;;;3.17;1.00;;;20.00;99.90;;;;;;4952657;29;20188;-69
2022/07/23 08:35:32;;;;;;;1.33;0.90;;;19.90;99.90;;;;;;4952121;28;20662;-69
2022/07/23 08:37:59;;;;;;;3.63;1.20;;;19.90;99.90;;;;;;4952615;28;20180;-72
2022/07/23 08:40:27;;;;;;;0.70;0.70;;;19.90;99.90;;;;;;4952617;28;20184;-75
2022/07/23 08:42:53;;;;;;;1.13;0.90;;;19.80;99.90;;;;;;4952797;28;20169;-74
2022/07/23 08:45:21;;;;;;;1.30;0.90;;;19.80;99.90;;;;;;4952477;28;20691;-76
2022/07/23 08:48:00;;;;;;;3.60;1.00;;;19.60;99.90;;;;;;4952665;28;20283;-75
2022/07/23 08:50:26;;;;;;;1.98;0.98;;;19.50;99.90;;;;;;4933537;29;20255;-74
2022/07/23 08:52:53;;;;;;;1.33;1.00;;;19.40;99.90;;;;;;4932500;29;20546;-73
2022/07/23 08:55:21;;;;;;;1.38;1.08;;;19.30;99.90;;;;;;4933548;29;20209;-73
2022/07/23 08:57:52;;;;;;;1.73;1.10;;;19.40;99.90;;;;;;4941669;29;20276;-73
2022/07/23 09:00:19;;;;;;;1.98;1.10;;;19.50;99.90;;;;;;4952113;28;20644;-73
2022/07/23 09:02:47;;;;;;;2.70;1.27;;;19.60;99.90;;;;;;4952456;28;20648;-73
2022/07/23 09:05:14;;;;;;;1.52;1.10;;;19.50;99.90;;;;;;4952380;28;20181;-74
2022/07/23 09:08:06;;;;;;;1.65;1.00;;;19.50;99.90;;;;;;4952630;29;20187;-74
2022/07/23 09:10:53;;;;;;;2.80;1.23;;;19.60;99.90;;;;;;4952919;28;20196;-76
2022/07/23 09:13:58;;;;;;;3.92;1.17;;;19.50;99.90;;;;;;4955955;29;20177;-72
2022/07/23 09:16:30;;;;;;;3.45;1.25;;;19.40;99.90;;;;;;4956141;28;20172;-74
2022/07/23 09:19:01;;;;;;;2.47;1.20;;;19.30;99.90;;;;;;4956616;28;20183;-73
2022/07/23 09:21:31;;;;;;;2.35;1.30;;;19.30;99.90;;;;;;4956261;28;20291;-73
2022/07/23 09:23:57;;;;;;;3.88;1.38;;;19.30;99.90;;;;;;4956027;28;20181;-72
2022/07/23 09:26:29;;;;;;;2.08;1.17;;;19.50;99.90;;;;;;4955533;29;20184;-74
2022/07/23 09:29:04;;;;;;;1.45;1.30;;;19.50;99.90;;;;;;4942676;28;20184;-73
2022/07/23 09:31:34;;;;;;;4.60;1.45;;;19.50;99.90;;;;;;4948730;29;20223;-74
2022/07/23 09:34:19;;;;;;;1.48;1.17;;;19.70;99.90;;;;;;4955458;28;20275;-74
2022/07/23 09:36:46;;;;;;;1.42;1.33;;;19.90;99.90;;;;;;4955774;28;20180;-74
2022/07/23 09:39:14;;;;;;;2.25;1.58;;;20.40;99.90;;;;;;4951785;29;20177;-75
2022/07/23 09:41:43;;;;;;;4.45;1.50;;;20.70;99.90;;;;;;4954588;29;20256;-75
2022/07/23 09:44:16;;;;;;;3.28;1.10;;;20.70;99.90;;;;;;4945021;28;20177;-75
2022/07/23 09:46:44;;;;;;;2.60;1.55;;;20.50;99.90;;;;;;4952534;29;20200;-75
2022/07/23 09:49:13;;;;;;;2.13;1.67;;;20.50;99.90;;;;;;4949456;29;20189;-75
2022/07/23 09:52:08;;;;;;;2.90;1.38;;;20.70;99.90;;;;;;4955317;28;20240;-78
2022/07/23 09:54:39;;;;;;;4.32;1.50;;;20.70;99.90;;;;;;4942247;29;20206;-76
2022/07/23 09:57:09;;;;;;;2.47;1.45;;;20.80;99.90;;;;;;4955229;28;20181;-74
2022/07/23 09:59:37;;;;;;;2.40;1.45;;;20.80;99.90;;;;;;4955299;28;20173;-76
2022/07/23 10:02:05;;;;;;;1.83;1.23;;;20.80;99.90;;;;;;4955211;28;20176;-75
2022/07/23 10:04:32;;;;;;;2.50;1.60;;;20.90;99.90;;;;;;4952603;28;20184;-72
2022/07/23 10:07:03;;;;;;;4.38;2.08;;;20.80;99.90;;;;;;4955327;28;20192;-68
2022/07/23 10:09:33;;;;;;;2.70;2.20;;;20.80;99.90;;;;;;4954744;28;20706;-68
2022/07/23 10:14:42;;;;;;;3.22;1.83;;;20.80;99.90;;;;;;4954467;28;20172;-64
2022/07/23 10:17:08;;;;;;;3.95;2.55;;;20.80;99.90;;;;;;4954866;28;20502;-64
2022/07/23 10:19:34;;;;;;;4.70;2.20;;;20.80;99.90;;;;;;4947043;28;20189;-65
2022/07/23 10:22:03;;;;;;;2.97;1.80;;;20.80;99.90;;;;;;4949793;28;20267;-67
2022/07/23 10:24:55;;;;;;;6.47;2.22;;;20.70;99.90;;;;;;4953742;28;20180;-67
2022/07/23 10:27:33;;;;;;;4.65;2.83;;;20.60;99.90;;;;;;4953752;29;20187;-73
2022/07/23 10:30:04;;;;;;;4.50;2.08;;;20.40;99.90;;;;;;4953212;29;20177;-75
2022/07/23 10:32:36;;;;;;;4.82;1.80;;;20.30;99.90;;;;;;4947329;28;20216;-72
2022/07/23 10:35:33;;;;;;;2.95;1.65;;;20.10;99.90;;;;;;4943305;28;20236;-68
2022/07/23 10:38:11;;;;;;;1.77;1.48;;;20.20;99.90;;;;;;4949502;28;20696;-68
2022/07/23 10:40:37;;;;;;;1.70;1.25;;;20.40;99.90;;;;;;4953092;29;20223;-69
2022/07/23 10:43:15;;;;;;;3.28;1.70;;;20.30;99.90;;;;;;4953500;28;20203;-66
2022/07/23 10:45:41;;;;;;;4.78;1.40;;;20.10;99.90;;;;;;4953308;28;20185;-66
2022/07/23 10:48:28;;;;;;;3.85;1.42;;;20.00;99.90;;;;;;4953394;28;20172;-68
2022/07/23 10:51:14;;;;;;;2.85;1.30;;;20.10;99.90;;;;;;4953335;28;20283;-69
2022/07/23 10:53:51;;;;;;;1.63;1.30;;;19.90;99.90;;;;;;4952587;28;20192;-69
2022/07/23 10:56:58;;;;;;;5.80;1.42;;;19.70;99.90;;;;;;4952552;28;20176;-68
2022/07/23 10:59:24;;;;;;;3.92;1.60;;;19.60;99.90;;;;;;4952741;28;20176;-69
2022/07/23 11:01:50;;;;;;;2.15;1.55;;;19.50;99.90;;;;;;4952789;28;20271;-69
2022/07/23 11:04:16;;;;;;;2.10;1.70;;;19.60;99.90;;;;;;4951522;29;20193;-68
2022/07/23 11:06:48;;;;;;;3.35;1.75;;;19.70;99.90;;;;;;4953118;28;20180;-68
2022/07/23 11:09:42;;;;;;;5.93;1.83;;;19.90;99.90;;;;;;4952671;28;20177;-69
2022/07/23 11:12:20;;;;;;;4.82;1.98;;;20.10;99.90;;;;;;4940020;29;20208;-68
2022/07/23 11:15:09;;;;;;;3.67;1.80;;;20.20;99.90;;;;;;4953008;28;20177;-69
2022/07/23 11:17:56;;;;;;;3.33;2.15;;;20.10;99.90;;;;;;4949525;28;20208;-68
2022/07/23 11:20:23;;;;;;;3.97;2.00;;;20.20;99.90;;;;;;4890209;29;1271143;-69
2022/07/23 11:22:55;;;;;;;2.85;1.80;;;21.60;99.90;;;;;;4951786;28;20250;-68
2022/07/23 11:25:29;;;;;;;3.90;1.85;;;20.50;99.90;;;;;;4953602;28;20177;-68
2022/07/23 11:28:08;;;;;;;2.33;1.90;;;20.40;99.90;;;;;;4952961;29;20175;-69
2022/07/23 11:30:38;;;;;;;2.38;1.88;;;20.40;99.90;;;;;;4953365;28;20236;-69
2022/07/23 11:33:07;;;;;;;2.38;1.60;;;20.40;99.90;;;;;;4952500;28;20195;-69
2022/07/23 11:35:34;;;;;;;3.15;1.80;;;20.40;99.90;;;;;;4953235;29;20205;-70
2022/07/23 11:38:16;;;;;;;4.07;1.60;;;20.40;99.90;;;;;;4953254;28;20223;-69
2022/07/23 11:40:47;;;;;;;4.05;1.58;;;20.40;99.90;;;;;;4953317;28;20660;-69
2022/07/23 11:43:14;;;;;;;2.70;1.58;;;20.40;99.90;;;;;;4953253;28;20169;-69
2022/07/23 11:45:43;;;;;;;2.63;1.52;;;20.60;99.90;;;;;;4953263;28;20184;-70
2022/07/23 11:48:20;;;;;;;2.72;1.52;;;20.60;99.90;;;;;;4953219;28;20200;-69
2022/07/23 11:50:46;;;;;;;3.47;1.92;;;20.70;99.90;;;;;;4953103;28;20211;-69
2022/07/23 11:53:12;;;;;;;1.80;1.65;;;20.80;99.90;;;;;;4952958;28;20204;-68
2022/07/23 11:55:38;;;;;;;3.10;1.92;;;20.70;99.90;;;;;;4953314;29;20173;-68
2022/07/23 11:58:05;;;;;;;2.55;1.65;;;20.80;99.90;;;;;;4953314;28;20176;-68
2022/07/23 12:00:32;;;;;;;3.22;2.00;;;20.80;99.90;;;;;;4952366;28;20208;-69
2022/07/23 12:03:01;;;;;;;4.10;2.13;;;20.90;99.90;;;;;;4951950;29;20180;-69
2022/07/23 12:05:32;;;;;;;4.10;2.03;;;20.80;99.90;;;;;;4952948;28;20648;-68
2022/07/23 12:07:58;;;;;;;3.45;2.05;;;20.60;99.90;;;;;;4953103;28;20172;-68
2022/07/23 12:10:27;;;;;;;3.35;2.15;;;20.60;99.90;;;;;;4952724;28;20172;-68
2022/07/23 12:12:56;;;;;;;4.28;2.17;;;20.60;99.90;;;;;;4952704;28;20216;-69
2022/07/23 12:15:30;;;;;;;8.15;2.63;;;20.70;99.90;;;;;;4951712;29;20165;-68
2022/07/23 12:17:56;;;;;;;2.72;1.80;;;20.70;99.90;;;;;;4952808;29;20177;-68
2022/07/23 12:20:25;;;;;;;3.03;1.90;;;20.60;99.90;;;;;;4952538;29;20177;-67
2022/07/23 12:22:55;;;;;;;4.45;1.73;;;20.50;99.90;;;;;;4952517;29;20284;-69
2022/07/23 12:25:26;;;;;;;3.92;2.20;;;20.40;99.90;;;;;;4952802;28;20672;-69
2022/07/23 12:28:01;;;;;;;5.20;2.30;;;20.40;99.90;;;;;;4952509;28;20180;-69
2022/07/23 12:30:33;;;;;;;3.17;2.03;;;20.40;99.90;;;;;;4952580;28;20180;-69
2022/07/23 12:32:59;;;;;;;6.00;2.97;;;20.50;99.90;;;;;;4952771;28;20173;-69
2022/07/23 12:35:33;;;;;;;5.80;2.58;;;20.60;99.90;;;;;;4952592;28;20173;-70
2022/07/23 12:38:05;;;;;;;4.25;1.95;;;20.70;99.90;;;;;;4952568;28;20173;-70
2022/07/23 12:40:47;;;;;;;2.95;2.15;;;20.60;99.90;;;;;;4952670;28;20234;-69
2022/07/23 12:43:33;;;;;;;3.40;2.05;;;20.60;99.90;;;;;;4952614;28;20652;-69
2022/07/23 12:46:14;;;;;;;4.20;2.00;;;20.60;99.90;;;;;;4953937;28;20271;-69
2022/07/23 12:48:52;;;;;;;2.72;2.22;;;20.50;99.90;;;;;;4956581;28;20296;-68
2022/07/23 12:51:27;;;;;;;7.88;2.13;;;20.50;99.90;;;;;;4956353;29;20215;-68